Time;durP1;ratioP1;P1;durP2;ratioP2;P2;SDS_P1;SDS_P2;PMS_P1;PMS_P2;Temp;Humidity;BMP_temperature;BMP_pressure;BME280_temperature;BME280_humidity;BME280_pressure;Samples;Min_cycle;Max_cycle;Signal;HPM_P1;HPM_P2
2022/04/10 00:00:12;;;;;;;4.53;1.05;;;;;;;;;;5010806;28;20064;-54
2022/04/10 00:02:39;;;;;;;6.20;1.08;;;;;;;;;;5001974;28;20049;-60
2022/04/10 00:05:06;;;;;;;4.25;1.48;;;;;;;;;;4994166;28;20049;-59
2022/04/10 00:07:34;;;;;;;6.13;1.73;;;;;;;;;;5000212;28;20049;-60
2022/04/10 00:10:00;;;;;;;4.53;1.40;;;;;;;;;;5008291;28;20073;-61
2022/04/10 00:12:27;;;;;;;4.95;1.17;;;;;;;;;;5010420;28;20053;-56
2022/04/10 00:14:53;;;;;;;3.95;1.38;;;;;;;;;;5003095;28;20053;-61
2022/04/10 00:17:20;;;;;;;5.60;1.13;;;;;;;;;;5026753;28;20078;-57
2022/04/10 00:19:47;;;;;;;8.40;1.20;;;;;;;;;;4986497;28;20045;-58
2022/04/10 00:22:13;;;;;;;3.55;1.00;;;;;;;;;;4991172;28;20060;-63
2022/04/10 00:24:41;;;;;;;5.22;1.35;;;;;;;;;;4985691;28;20422;-54
2022/04/10 00:27:13;;;;;;;2.67;0.90;;;;;;;;;;4991361;28;20058;-61
2022/04/10 00:29:40;;;;;;;5.20;1.10;;;;;;;;;;4985762;28;20072;-59
2022/04/10 00:32:07;;;;;;;2.35;1.00;;;;;;;;;;5007191;28;20061;-62
2022/04/10 00:34:33;;;;;;;2.97;1.10;;;;;;;;;;4990002;28;20065;-60
2022/04/10 00:37:01;;;;;;;4.93;1.17;;;;;;;;;;5010739;28;20053;-62
2022/04/10 00:39:28;;;;;;;3.83;0.90;;;;;;;;;;5011140;28;20045;-61
2022/04/10 00:41:56;;;;;;;3.95;1.08;;;;;;;;;;5008797;28;20053;-59
2022/04/10 00:44:22;;;;;;;2.20;0.77;;;;;;;;;;5004896;28;20049;-58
2022/04/10 00:46:50;;;;;;;2.40;1.10;;;;;;;;;;5010607;28;20173;-58
2022/04/10 00:49:18;;;;;;;6.67;1.37;;;;;;;;;;5021765;28;20116;-63
2022/04/10 00:51:47;;;;;;;2.45;0.80;;;;;;;;;;5016541;28;20320;-61
2022/04/10 00:54:15;;;;;;;3.80;0.95;;;;;;;;;;5016196;28;20057;-61
2022/04/10 00:56:42;;;;;;;4.80;0.88;;;;;;;;;;5026444;28;20103;-60
2022/04/10 00:59:10;;;;;;;2.53;0.80;;;;;;;;;;5013830;28;20135;-61
2022/04/10 01:01:38;;;;;;;1.15;0.77;;;;;;;;;;4991647;28;20053;-59
2022/04/10 01:04:05;;;;;;;2.05;0.90;;;;;;;;;;5010521;28;20045;-61
2022/04/10 01:06:33;;;;;;;3.10;0.90;;;;;;;;;;5019903;28;20045;-61
2022/04/10 01:08:59;;;;;;;4.68;1.13;;;;;;;;;;5031869;28;20539;-62
2022/04/10 01:11:26;;;;;;;4.72;1.20;;;;;;;;;;5015814;28;20107;-61
2022/04/10 01:13:53;;;;;;;3.45;1.00;;;;;;;;;;5013258;28;20122;-58
2022/04/10 01:16:23;;;;;;;3.95;1.10;;;;;;;;;;5008723;28;20063;-58
2022/04/10 01:18:50;;;;;;;2.72;1.00;;;;;;;;;;5013616;28;20049;-55
2022/04/10 01:21:22;;;;;;;5.13;0.98;;;;;;;;;;5031778;28;20048;-58
2022/04/10 01:23:50;;;;;;;3.85;1.10;;;;;;;;;;5033102;28;20063;-58
2022/04/10 01:26:17;;;;;;;2.58;1.08;;;;;;;;;;5020915;28;20062;-58
2022/04/10 01:29:00;;;;;;;2.42;0.90;;;;;;;;;;5013250;28;20116;-55
2022/04/10 01:31:26;;;;;;;2.70;0.95;;;;;;;;;;5007696;28;20084;-60
2022/04/10 01:33:55;;;;;;;4.78;0.90;;;;;;;;;;5012908;28;20096;-59
2022/04/10 01:36:23;;;;;;;4.15;0.90;;;;;;;;;;5011304;28;20053;-55
2022/04/10 01:38:52;;;;;;;3.28;1.40;;;;;;;;;;5033068;28;20057;-58
2022/04/10 01:41:18;;;;;;;;;;;;;;;;;;5027070;28;20069;-55
2022/04/10 01:43:45;;;;;;;3.42;1.08;;;;;;;;;;5032444;28;19935;-57
2022/04/10 01:46:12;;;;;;;5.88;1.15;;;;;;;;;;5033328;28;20460;-57
2022/04/10 01:48:39;;;;;;;3.50;1.00;;;;;;;;;;5020468;28;20057;-59
2022/04/10 01:51:05;;;;;;;5.47;1.10;;;;;;;;;;5029663;28;20059;-56
2022/04/10 01:53:32;;;;;;;2.95;1.00;;;;;;;;;;5026334;28;20053;-58
2022/04/10 01:56:03;;;;;;;4.65;1.20;;;;;;;;;;5032976;28;20053;-61
2022/04/10 01:58:29;;;;;;;3.10;1.17;;;;;;;;;;5029466;28;20172;-63
2022/04/10 02:00:55;;;;;;;7.97;1.20;;;;;;;;;;5012559;28;20103;-58
2022/04/10 02:03:22;;;;;;;3.38;1.00;;;;;;;;;;5018993;28;20126;-59
2022/04/10 02:05:48;;;;;;;5.13;1.15;;;;;;;;;;5032568;28;20127;-59
2022/04/10 02:08:15;;;;;;;6.95;1.50;;;;;;;;;;5018481;28;20049;-59
2022/04/10 02:10:41;;;;;;;2.75;0.90;;;;;;;;;;5012651;28;20059;-62
2022/04/10 02:13:09;;;;;;;6.95;1.50;;;;;;;;;;5014084;28;20111;-60
2022/04/10 02:15:36;;;;;;;1.60;0.93;;;;;;;;;;5042486;28;20136;-60
2022/04/10 02:18:05;;;;;;;2.30;0.82;;;;;;;;;;5024716;28;20057;-60
2022/04/10 02:20:32;;;;;;;2.45;1.00;;;;;;;;;;5015734;28;20193;-61
2022/04/10 02:23:01;;;;;;;2.33;0.70;;;;;;;;;;5007070;28;20080;-61
2022/04/10 02:25:28;;;;;;;3.55;0.95;;;;;;;;;;5005089;28;20053;-59
2022/04/10 02:27:56;;;;;;;1.85;0.90;;;;;;;;;;5011095;28;20519;-61
2022/04/10 02:30:24;;;;;;;1.92;0.90;;;;;;;;;;5027384;28;20049;-62
2022/04/10 02:32:51;;;;;;;2.53;1.10;;;;;;;;;;5012035;28;20053;-58
2022/04/10 02:35:19;;;;;;;4.60;1.02;;;;;;;;;;5012709;28;20053;-58
2022/04/10 02:37:46;;;;;;;4.90;1.10;;;;;;;;;;5028747;28;20076;-57
2022/04/10 02:40:15;;;;;;;4.25;1.13;;;;;;;;;;5021894;28;20111;-60
2022/04/10 02:42:41;;;;;;;3.85;1.00;;;;;;;;;;5032317;28;20049;-60
2022/04/10 02:45:08;;;;;;;3.08;0.80;;;;;;;;;;5043607;28;20049;-56
2022/04/10 02:47:36;;;;;;;1.80;0.82;;;;;;;;;;5031614;28;20127;-58
2022/04/10 02:50:03;;;;;;;4.53;1.30;;;;;;;;;;5025811;28;20458;-57
2022/04/10 02:52:29;;;;;;;2.30;1.02;;;;;;;;;;5031296;28;20080;-55
2022/04/10 02:54:56;;;;;;;2.78;0.85;;;;;;;;;;5018652;28;20049;-56
2022/04/10 02:57:23;;;;;;;3.20;1.02;;;;;;;;;;5011539;28;20397;-58
2022/04/10 02:59:49;;;;;;;3.35;1.10;;;;;;;;;;5006310;28;20049;-57
2022/04/10 07:07:14;;;;;;;5.32;0.90;;;;;;;;;;4947789;28;20069;-53
2022/04/10 07:09:40;;;;;;;3.80;0.90;;;;;;;;;;4945825;28;20066;-57
2022/04/10 07:12:08;;;;;;;1.15;0.80;;;;;;;;;;4937624;28;20055;-60
2022/04/10 07:14:34;;;;;;;2.17;0.80;;;;;;;;;;4953268;28;20101;-56
2022/04/10 07:17:01;;;;;;;2.30;0.70;;;;;;;;;;4935088;28;20063;-56
2022/04/10 07:19:27;;;;;;;6.78;1.00;;;;;;;;;;4953702;28;20145;-56
2022/04/10 07:24:40;;;;;;;6.43;0.90;;;;;;;;;;4947642;28;20124;-59
2022/04/10 07:27:06;;;;;;;2.05;0.73;;;;;;;;;;4947506;28;20493;-55
2022/04/10 07:29:33;;;;;;;2.35;0.73;;;;;;;;;;4957291;28;20055;-56
2022/04/10 07:31:59;;;;;;;4.13;0.90;;;;;;;;;;4953376;28;20065;-62
2022/04/10 07:34:26;;;;;;;3.30;0.68;;;;;;;;;;4958887;28;20062;-59
2022/04/10 07:36:53;;;;;;;4.28;1.20;;;;;;;;;;4966807;28;20054;-56
2022/04/10 07:39:19;;;;;;;4.82;1.15;;;;;;;;;;4931936;28;20137;-54
2022/04/10 07:41:47;;;;;;;2.80;0.70;;;;;;;;;;4950112;28;20075;-57
2022/04/10 07:44:14;;;;;;;6.40;1.10;;;;;;;;;;4937620;28;20073;-58
2022/04/10 07:49:24;;;;;;;8.27;1.02;;;;;;;;;;4965033;28;20059;-54
2022/04/10 07:51:51;;;;;;;5.88;1.50;;;;;;;;;;4935089;28;20058;-60
2022/04/10 07:54:18;;;;;;;3.97;1.08;;;;;;;;;;4952788;28;20055;-58
2022/04/10 07:56:46;;;;;;;9.15;1.20;;;;;;;;;;4950205;28;20043;-57
2022/04/10 07:59:16;;;;;;;4.50;1.05;;;;;;;;;;4966609;28;20054;-51
2022/04/10 08:01:42;;;;;;;2.38;0.77;;;;;;;;;;4930478;28;20062;-54
2022/04/10 08:04:09;;;;;;;2.53;0.70;;;;;;;;;;4937561;28;20072;-58
2022/04/10 08:06:37;;;;;;;5.22;1.00;;;;;;;;;;4942988;28;20571;-57
2022/04/10 08:09:03;;;;;;;4.87;1.57;;;;;;;;;;4944284;28;20110;-56
2022/04/10 08:11:30;;;;;;;8.30;1.02;;;;;;;;;;4935602;28;20310;-56
2022/04/10 08:13:56;;;;;;;2.75;1.05;;;;;;;;;;4949810;28;20054;-56
2022/04/10 08:16:24;;;;;;;3.83;0.90;;;;;;;;;;4947291;28;20118;-61
2022/04/10 08:18:52;;;;;;;3.58;0.80;;;;;;;;;;4925766;28;20109;-53
2022/04/10 08:21:19;;;;;;;3.00;0.98;;;;;;;;;;4965700;28;20066;-62
2022/04/10 08:23:46;;;;;;;1.60;0.63;;;;;;;;;;4953655;28;20046;-57
2022/04/10 08:26:16;;;;;;;5.53;0.80;;;;;;;;;;4961442;28;20058;-59
2022/04/10 08:28:43;;;;;;;2.17;0.80;;;;;;;;;;4958971;28;20058;-52
2022/04/10 08:31:10;;;;;;;6.68;0.80;;;;;;;;;;4935607;28;20055;-57
2022/04/10 08:33:38;;;;;;;5.68;1.35;;;;;;;;;;4966406;28;20053;-55
2022/04/10 08:36:05;;;;;;;3.95;0.80;;;;;;;;;;4953695;28;20055;-54
2022/04/10 08:38:31;;;;;;;1.55;0.70;;;;;;;;;;4950870;28;20050;-54
2022/04/10 08:40:59;;;;;;;3.67;1.08;;;;;;;;;;4948389;28;20073;-55
2022/04/10 08:43:28;;;;;;;3.47;1.00;;;;;;;;;;4956062;28;20051;-56
2022/04/10 08:45:56;;;;;;;2.60;1.00;;;;;;;;;;4949516;28;20051;-56
2022/04/10 08:48:24;;;;;;;2.33;0.70;;;;;;;;;;4950553;28;20051;-52
2022/04/10 08:50:53;;;;;;;4.20;1.15;;;;;;;;;;4952765;28;20201;-56
2022/04/10 08:53:21;;;;;;;1.95;0.80;;;;;;;;;;4953665;28;20066;-52
2022/04/10 08:55:47;;;;;;;0.93;0.65;;;;;;;;;;4965592;28;20074;-51
2022/04/10 08:58:14;;;;;;;3.92;0.90;;;;;;;;;;4952508;28;20081;-55
2022/04/10 09:00:42;;;;;;;2.45;0.90;;;;;;;;;;4948969;28;20051;-53
2022/04/10 09:03:09;;;;;;;3.00;1.00;;;;;;;;;;4942732;28;20065;-57
2022/04/10 09:05:36;;;;;;;4.47;1.05;;;;;;;;;;4951809;28;20066;-57
2022/04/10 09:08:09;;;;;;;5.72;1.30;;;;;;;;;;4964754;28;20066;-55
2022/04/10 09:10:54;;;;;;;6.20;1.13;;;;;;;;;;4943873;28;20074;-55
2022/04/10 09:13:25;;;;;;;5.63;0.95;;;;;;;;;;4971608;28;20058;-56
2022/04/10 09:15:53;;;;;;;8.05;1.13;;;;;;;;;;4934771;28;20123;-59
2022/04/10 09:18:20;;;;;;;3.10;0.87;;;;;;;;;;4971940;28;20055;-56
2022/04/10 09:21:05;;;;;;;4.72;0.90;;;;;;;;;;4954697;28;20641;-57
2022/04/10 09:23:33;;;;;;;4.72;0.95;;;;;;;;;;4967931;28;20078;-57
2022/04/10 09:26:00;;;;;;;2.95;1.10;;;;;;;;;;4954912;28;20055;-56
2022/04/10 09:28:40;;;;;;;3.55;0.80;;;;;;;;;;4946748;28;20051;-57
2022/04/10 09:31:24;;;;;;;4.18;1.00;;;;;;;;;;4954556;28;20111;-59
2022/04/10 09:33:51;;;;;;;7.57;0.90;;;;;;;;;;4949217;28;20051;-58
2022/04/10 09:36:27;;;;;;;2.28;0.98;;;;;;;;;;4954717;28;20055;-56
2022/04/10 09:38:55;;;;;;;4.45;0.80;;;;;;;;;;4944079;28;20062;-57
2022/04/10 09:41:22;;;;;;;3.88;0.88;;;;;;;;;;4971401;28;20315;-58
2022/04/10 09:43:49;;;;;;;3.47;0.80;;;;;;;;;;4970878;28;20121;-58
2022/04/10 09:46:15;;;;;;;3.85;1.00;;;;;;;;;;4945814;28;20074;-60
2022/04/10 09:48:42;;;;;;;9.02;1.20;;;;;;;;;;4954989;28;20055;-62
2022/04/10 09:51:11;;;;;;;4.45;0.80;;;;;;;;;;4946274;28;20061;-58
2022/04/10 09:53:38;;;;;;;7.88;1.10;;;;;;;;;;4955287;28;20047;-57
2022/04/10 09:56:07;;;;;;;3.03;0.80;;;;;;;;;;4962832;28;20971;-60
2022/04/10 09:58:34;;;;;;;3.38;1.00;;;;;;;;;;4970467;28;20066;-61
2022/04/10 10:01:03;;;;;;;3.05;0.80;;;;;;;;;;4954034;28;20058;-57
2022/04/10 10:03:30;;;;;;;5.10;1.05;;;;;;;;;;4947446;28;20038;-58
2022/04/10 10:05:57;;;;;;;8.32;0.95;;;;;;;;;;4951614;29;20063;-57
2022/04/10 10:08:25;;;;;;;2.47;0.82;;;;;;;;;;4941801;28;20059;-59
2022/04/10 10:10:51;;;;;;;3.03;0.98;;;;;;;;;;4951874;29;20051;-60
2022/04/10 10:13:26;;;;;;;12.60;3.92;;;;;;;;;;4943259;28;20067;-57
2022/04/10 10:15:55;;;;;;;9.75;2.47;;;;;;;;;;4932190;29;20064;-59
2022/04/10 10:18:22;;;;;;;;;;;;;;;;;;4948984;29;20060;-57
2022/04/10 10:20:48;;;;;;;2.92;0.80;;;;;;;;;;4955992;28;19926;-59
2022/04/10 10:23:15;;;;;;;2.28;0.82;;;;;;;;;;4952581;28;20172;-59
2022/04/10 10:25:44;;;;;;;4.32;1.00;;;;;;;;;;4947570;28;20118;-58
2022/04/10 10:28:35;;;;;;;4.38;0.70;;;;;;;;;;4969854;28;20102;-60
2022/04/10 10:31:11;;;;;;;7.43;0.98;;;;;;;;;;4935850;28;20047;-61
2022/04/10 10:33:40;;;;;;;3.33;0.70;;;;;;;;;;4962147;28;20061;-63
2022/04/10 10:36:10;;;;;;;4.85;1.00;;;;;;;;;;4961470;28;20062;-61
2022/04/10 10:38:37;;;;;;;1.65;0.80;;;;;;;;;;4952204;28;20047;-57
2022/04/10 10:41:10;;;;;;;3.83;0.90;;;;;;;;;;4958618;28;20061;-63
2022/04/10 10:43:37;;;;;;;5.18;0.75;;;;;;;;;;4933243;29;20081;-59
2022/04/10 10:46:19;;;;;;;5.25;1.02;;;;;;;;;;4937585;28;20047;-61
2022/04/10 10:48:47;;;;;;;7.90;1.15;;;;;;;;;;4961924;28;20118;-57
2022/04/10 10:51:32;;;;;;;3.58;0.80;;;;;;;;;;4946392;28;20067;-57
2022/04/10 10:53:59;;;;;;;6.38;0.95;;;;;;;;;;4952415;28;20055;-58
2022/04/10 10:56:28;;;;;;;5.80;0.93;;;;;;;;;;4938007;28;20118;-57
2022/04/10 10:58:56;;;;;;;4.15;0.80;;;;;;;;;;4931438;29;20509;-58
2022/04/10 11:01:25;;;;;;;7.10;2.15;;;;;;;;;;4946369;28;20122;-58
2022/04/10 11:04:03;;;;;;;9.57;2.97;;;;;;;;;;4958167;28;20066;-59
2022/04/10 11:06:33;;;;;;;3.25;1.05;;;;;;;;;;4939179;28;20055;-56
2022/04/10 11:09:14;;;;;;;8.77;0.93;;;;;;;;;;4948785;28;20051;-54
2022/04/10 11:11:41;;;;;;;2.03;1.05;;;;;;;;;;4957097;28;20055;-59
2022/04/10 11:14:29;;;;;;;4.82;0.93;;;;;;;;;;4959806;28;20149;-57
2022/04/10 11:17:07;;;;;;;3.40;0.80;;;;;;;;;;4947732;29;20056;-59
2022/04/10 11:19:35;;;;;;;2.97;0.90;;;;;;;;;;4961786;28;20059;-59
2022/04/10 11:22:01;;;;;;;3.65;0.82;;;;;;;;;;4950229;29;20059;-56
2022/04/10 11:24:28;;;;;;;3.83;0.98;;;;;;;;;;4942007;28;20074;-59
2022/04/10 11:26:55;;;;;;;2.03;0.80;;;;;;;;;;4950339;29;20047;-59
2022/04/10 11:29:22;;;;;;;3.67;0.85;;;;;;;;;;4939985;28;20051;-59
2022/04/10 11:31:53;;;;;;;4.53;0.90;;;;;;;;;;4965525;28;20047;-64
2022/04/10 11:34:20;;;;;;;3.33;1.10;;;;;;;;;;4945997;28;20051;-64
2022/04/10 11:36:58;;;;;;;4.95;1.40;;;;;;;;;;4942876;28;20082;-60
2022/04/10 11:39:26;;;;;;;2.00;0.88;;;;;;;;;;4949609;29;20079;-63
2022/04/10 11:41:53;;;;;;;5.68;0.90;;;;;;;;;;4940043;28;20055;-62
2022/04/10 11:44:20;;;;;;;4.43;0.98;;;;;;;;;;4949716;29;20062;-61
2022/04/10 11:46:48;;;;;;;4.95;0.90;;;;;;;;;;4939855;28;20071;-56
2022/04/10 11:49:17;;;;;;;4.03;0.82;;;;;;;;;;4949582;29;20055;-62
2022/04/10 11:51:51;;;;;;;1.88;0.80;;;;;;;;;;4964580;28;20063;-58
2022/04/10 11:54:25;;;;;;;7.97;1.00;;;;;;;;;;4950182;28;20170;-58
2022/04/10 11:56:51;;;;;;;3.50;0.85;;;;;;;;;;4949945;28;20055;-58
2022/04/10 11:59:18;;;;;;;1.05;0.52;;;;;;;;;;4939163;28;20073;-60
2022/04/10 12:01:46;;;;;;;3.97;0.85;;;;;;;;;;4949470;28;20061;-57
2022/04/10 12:04:13;;;;;;;2.03;0.60;;;;;;;;;;4941085;28;20083;-59
2022/04/10 12:06:41;;;;;;;3.00;0.90;;;;;;;;;;4965689;28;20055;-58
2022/04/10 12:09:07;;;;;;;5.43;0.90;;;;;;;;;;4945657;28;20062;-57
2022/04/10 12:11:39;;;;;;;4.65;0.80;;;;;;;;;;4960658;28;20117;-58
2022/04/10 12:14:19;;;;;;;5.18;1.20;;;;;;;;;;4962295;28;20063;-61
2022/04/10 12:16:46;;;;;;;3.17;1.35;;;;;;;;;;4953750;28;20218;-58
2022/04/10 12:19:12;;;;;;;4.15;0.82;;;;;;;;;;4951096;29;20043;-56
2022/04/10 12:21:47;;;;;;;2.92;0.70;;;;;;;;;;4942768;28;20075;-59
2022/04/10 12:24:18;;;;;;;2.63;0.80;;;;;;;;;;4964821;28;20051;-59
2022/04/10 12:26:49;;;;;;;2.00;0.77;;;;;;;;;;4952028;28;20059;-56
2022/04/10 12:29:16;;;;;;;3.38;0.68;;;;;;;;;;4944637;29;20071;-58
2022/04/10 12:31:43;;;;;;;4.47;0.88;;;;;;;;;;4961115;28;20114;-61
2022/04/10 12:34:11;;;;;;;4.82;1.15;;;;;;;;;;4964702;28;20074;-57
2022/04/10 12:36:45;;;;;;;2.72;0.98;;;;;;;;;;4958839;28;20051;-59
2022/04/10 12:39:22;;;;;;;4.68;0.90;;;;;;;;;;4965077;28;20062;-60
2022/04/10 12:41:57;;;;;;;2.70;0.70;;;;;;;;;;4958344;28;20052;-57
2022/04/10 12:44:24;;;;;;;4.60;0.80;;;;;;;;;;4948712;29;20118;-61
2022/04/10 12:46:51;;;;;;;5.05;0.70;;;;;;;;;;4947204;28;20047;-58
2022/04/10 12:49:18;;;;;;;9.38;1.05;;;;;;;;;;4952651;28;20047;-59
2022/04/10 12:51:49;;;;;;;3.00;0.60;;;;;;;;;;4969184;28;20067;-60
2022/04/10 12:54:16;;;;;;;3.15;0.75;;;;;;;;;;4932133;29;20123;-60
2022/04/10 12:56:43;;;;;;;1.55;0.80;;;;;;;;;;4933397;29;20040;-61
2022/04/10 12:59:11;;;;;;;4.13;0.90;;;;;;;;;;4942023;28;20052;-60
2022/04/10 13:01:38;;;;;;;2.92;1.00;;;;;;;;;;4948685;29;20115;-60
2022/04/10 13:04:05;;;;;;;1.92;0.80;;;;;;;;;;4969726;28;20083;-61
2022/04/10 13:06:47;;;;;;;3.42;0.75;;;;;;;;;;4967893;28;20055;-65
2022/04/10 13:09:15;;;;;;;2.22;0.75;;;;;;;;;;4931076;28;20067;-58
2022/04/10 13:11:41;;;;;;;2.15;0.80;;;;;;;;;;4948965;29;20052;-58
2022/04/10 13:14:10;;;;;;;6.28;0.98;;;;;;;;;;4948623;28;20051;-55
2022/04/10 13:16:39;;;;;;;3.13;0.90;;;;;;;;;;4952423;28;20055;-58
2022/04/10 13:19:06;;;;;;;4.15;1.10;;;;;;;;;;4947094;28;20122;-59
2022/04/10 13:21:34;;;;;;;3.90;0.90;;;;;;;;;;4954920;28;20059;-60
2022/04/10 13:24:00;;;;;;;9.48;1.20;;;;;;;;;;4946107;29;20106;-61
2022/04/10 13:26:42;;;;;;;4.88;0.95;;;;;;;;;;4955284;28;20062;-62
2022/04/10 13:29:09;;;;;;;4.03;0.90;;;;;;;;;;4946919;28;20082;-62
2022/04/10 13:31:36;;;;;;;5.25;1.00;;;;;;;;;;4936608;29;20131;-64
2022/04/10 13:34:05;;;;;;;6.30;0.93;;;;;;;;;;4935105;28;20047;-61
2022/04/10 13:36:34;;;;;;;;;;;;;;;;;;4952979;29;20061;-62
2022/04/10 13:39:00;;;;;;;3.65;0.80;;;;;;;;;;4947236;28;20059;-62
2022/04/10 13:41:27;;;;;;;1.38;0.65;;;;;;;;;;4967712;28;20047;-59
2022/04/10 13:43:54;;;;;;;5.47;0.90;;;;;;;;;;4963403;28;20051;-61
2022/04/10 13:46:21;;;;;;;4.10;1.02;;;;;;;;;;4968744;28;20059;-64
2022/04/10 13:48:48;;;;;;;3.30;0.82;;;;;;;;;;4968442;28;20066;-60
2022/04/10 13:51:16;;;;;;;3.53;0.90;;;;;;;;;;4961496;28;20122;-63
2022/04/10 13:53:42;;;;;;;3.90;0.88;;;;;;;;;;4951784;29;20141;-58
2022/04/10 13:56:09;;;;;;;2.08;0.70;;;;;;;;;;4945426;28;20048;-58
2022/04/10 13:58:36;;;;;;;3.13;0.50;;;;;;;;;;4944084;28;20116;-63
2022/04/10 14:01:04;;;;;;;5.03;0.80;;;;;;;;;;4935380;28;20052;-60
2022/04/10 14:03:30;;;;;;;0.83;0.57;;;;;;;;;;4949922;29;20062;-61
2022/04/10 14:05:57;;;;;;;1.63;0.70;;;;;;;;;;4942236;28;20107;-64
2022/04/10 14:08:26;;;;;;;2.55;0.70;;;;;;;;;;4948218;29;20059;-59
2022/04/10 14:10:53;;;;;;;0.95;0.70;;;;;;;;;;4950372;28;20065;-59
2022/04/10 14:13:19;;;;;;;2.38;0.70;;;;;;;;;;4966509;28;20083;-60
2022/04/10 14:15:46;;;;;;;2.53;0.70;;;;;;;;;;4949780;28;20081;-61
2022/04/10 14:18:13;;;;;;;2.50;0.70;;;;;;;;;;4948757;29;20110;-60
2022/04/10 14:20:39;;;;;;;1.27;0.70;;;;;;;;;;4944500;28;20059;-61
2022/04/10 14:23:06;;;;;;;1.90;0.80;;;;;;;;;;4933867;29;20060;-62
2022/04/10 14:25:34;;;;;;;2.88;0.63;;;;;;;;;;4927324;28;20052;-63
2022/04/10 14:28:01;;;;;;;2.00;0.70;;;;;;;;;;4950079;29;20059;-62
2022/04/10 14:30:27;;;;;;;2.67;0.75;;;;;;;;;;4950708;29;20055;-61
2022/04/10 14:32:54;;;;;;;6.68;1.73;;;;;;;;;;4944440;28;20138;-64
2022/04/10 14:35:23;;;;;;;3.88;1.27;;;;;;;;;;4947625;29;20071;-61
2022/04/10 14:37:52;;;;;;;2.97;0.88;;;;;;;;;;4957675;28;20058;-61
2022/04/10 14:40:20;;;;;;;3.70;0.70;;;;;;;;;;4966965;28;20074;-62
2022/04/10 14:42:48;;;;;;;1.67;0.90;;;;;;;;;;4953415;28;20046;-63
2022/04/10 14:45:15;;;;;;;2.90;0.90;;;;;;;;;;4950979;29;20055;-63
2022/04/10 14:47:42;;;;;;;2.00;0.70;;;;;;;;;;4933663;28;20051;-63
2022/04/10 14:50:09;;;;;;;4.32;0.98;;;;;;;;;;4922938;29;20063;-66
2022/04/10 14:52:35;;;;;;;2.00;0.80;;;;;;;;;;4929756;28;20317;-63
2022/04/10 14:55:02;;;;;;;3.97;1.00;;;;;;;;;;4931841;29;20111;-61
2022/04/10 14:57:29;;;;;;;1.73;0.80;;;;;;;;;;4931832;28;20055;-60
2022/04/10 14:59:57;;;;;;;1.40;0.80;;;;;;;;;;4951346;29;20145;-61
2022/04/10 15:02:23;;;;;;;1.40;0.60;;;;;;;;;;4943979;28;20066;-63
2022/04/10 15:04:50;;;;;;;0.88;0.60;;;;;;;;;;4966645;28;20055;-59
2022/04/10 15:07:17;;;;;;;1.77;0.60;;;;;;;;;;4944469;28;20055;-61
2022/04/10 15:09:45;;;;;;;1.85;0.88;;;;;;;;;;4950483;28;20063;-63
2022/04/10 15:12:14;;;;;;;2.95;0.93;;;;;;;;;;4950226;29;20062;-62
2022/04/10 15:14:44;;;;;;;3.20;0.77;;;;;;;;;;4946280;28;20063;-59
2022/04/10 15:17:12;;;;;;;4.45;1.08;;;;;;;;;;4947296;28;20084;-61
2022/04/10 15:19:39;;;;;;;3.72;0.70;;;;;;;;;;4957661;28;20135;-62
2022/04/10 15:22:06;;;;;;;2.35;0.88;;;;;;;;;;4966167;28;20057;-59
2022/04/10 15:24:32;;;;;;;3.50;0.80;;;;;;;;;;4960670;28;20174;-64
2022/04/10 15:27:01;;;;;;;2.03;0.63;;;;;;;;;;4966623;28;20078;-65
2022/04/10 15:29:30;;;;;;;2.80;0.80;;;;;;;;;;4961075;28;20054;-63
2022/04/10 15:31:59;;;;;;;2.42;0.63;;;;;;;;;;4967791;28;20066;-70
2022/04/10 15:34:28;;;;;;;2.95;0.73;;;;;;;;;;4935458;28;20059;-64
2022/04/10 15:36:55;;;;;;;3.42;0.60;;;;;;;;;;4932692;29;20122;-64
2022/04/10 15:39:22;;;;;;;2.75;0.70;;;;;;;;;;4934731;28;20058;-61
2022/04/10 15:41:50;;;;;;;1.27;0.60;;;;;;;;;;4966195;28;20062;-63
2022/04/10 15:44:17;;;;;;;0.98;0.65;;;;;;;;;;4954774;28;20067;-61
2022/04/10 15:46:44;;;;;;;2.15;0.73;;;;;;;;;;4931819;29;20131;-66
2022/04/10 15:49:11;;;;;;;3.60;0.70;;;;;;;;;;4926618;28;20051;-63
2022/04/10 15:51:39;;;;;;;1.40;0.88;;;;;;;;;;4947295;28;20055;-59
2022/04/10 15:54:06;;;;;;;3.55;0.85;;;;;;;;;;4926051;28;20052;-62
2022/04/10 15:56:34;;;;;;;3.85;0.90;;;;;;;;;;4942014;29;20156;-66
2022/04/10 15:59:00;;;;;;;2.13;0.77;;;;;;;;;;4951078;29;20047;-63
2022/04/10 16:01:27;;;;;;;2.95;0.98;;;;;;;;;;4945067;28;20082;-65
2022/04/10 16:03:54;;;;;;;1.50;0.70;;;;;;;;;;4967422;28;20145;-68
2022/04/10 16:06:21;;;;;;;3.53;1.52;;;;;;;;;;4945152;28;20149;-63
2022/04/10 16:08:49;;;;;;;8.65;2.17;;;;;;;;;;4949922;29;20039;-66
2022/04/10 16:11:15;;;;;;;3.60;1.00;;;;;;;;;;4930578;28;20182;-62
2022/04/10 16:13:42;;;;;;;3.50;0.98;;;;;;;;;;4931808;29;20057;-65
2022/04/10 16:16:09;;;;;;;2.75;1.00;;;;;;;;;;4959523;28;20074;-63
2022/04/10 16:18:35;;;;;;;2.95;0.80;;;;;;;;;;4965800;28;20079;-60
2022/04/10 16:21:02;;;;;;;2.75;1.10;;;;;;;;;;4955962;28;20058;-69
2022/04/10 16:23:28;;;;;;;2.10;0.80;;;;;;;;;;4948848;29;20051;-60
2022/04/10 16:25:57;;;;;;;2.47;0.73;;;;;;;;;;4943355;28;20051;-63
2022/04/10 16:31:07;;;;;;;4.00;0.80;;;;;;;;;;4938613;28;20095;-64
2022/04/10 16:34:16;;;;;;;2.60;0.98;;;;;;;;;;4946831;29;20051;-62
2022/04/10 16:36:21;;;;;;;1.77;0.80;;;;;;;;;;4940825;28;20052;-58
2022/04/10 16:38:48;;;;;;;1.13;0.60;;;;;;;;;;4929490;29;20052;-66
2022/04/10 16:41:16;;;;;;;1.98;0.63;;;;;;;;;;4925516;28;20106;-62
2022/04/10 16:43:43;;;;;;;3.22;0.70;;;;;;;;;;4929716;29;20055;-62
2022/04/10 16:46:10;;;;;;;2.47;0.90;;;;;;;;;;4926360;28;20055;-64
2022/04/10 16:48:36;;;;;;;1.33;0.50;;;;;;;;;;4948408;29;20062;-66
2022/04/10 16:51:03;;;;;;;2.38;0.60;;;;;;;;;;4959354;28;20117;-67
2022/04/10 16:53:33;;;;;;;1.55;0.60;;;;;;;;;;4950210;28;20146;-62
2022/04/10 16:56:00;;;;;;;1.67;0.90;;;;;;;;;;4961093;28;20060;-59
2022/04/10 16:58:28;;;;;;;2.45;0.73;;;;;;;;;;4941310;28;20047;-59
2022/04/10 17:00:54;;;;;;;1.75;0.77;;;;;;;;;;4963335;28;20126;-65
2022/04/10 17:03:21;;;;;;;3.63;0.70;;;;;;;;;;4938087;28;20055;-62
2022/04/10 17:05:48;;;;;;;2.90;0.80;;;;;;;;;;4963508;28;20086;-68
2022/04/10 17:08:14;;;;;;;1.30;0.60;;;;;;;;;;4946034;28;20123;-64
2022/04/10 17:10:41;;;;;;;3.08;0.90;;;;;;;;;;4949946;28;20055;-64
2022/04/10 17:13:08;;;;;;;1.95;0.55;;;;;;;;;;4932922;28;20133;-64
2022/04/10 17:15:37;;;;;;;1.85;0.73;;;;;;;;;;4950070;28;20066;-61
2022/04/10 17:18:04;;;;;;;1.58;0.70;;;;;;;;;;4954642;28;20047;-59
2022/04/10 17:20:31;;;;;;;4.40;1.15;;;;;;;;;;4945072;28;20121;-59
2022/04/10 17:22:58;;;;;;;2.47;0.90;;;;;;;;;;4964815;28;20066;-63
2022/04/10 17:25:24;;;;;;;2.65;0.90;;;;;;;;;;4935242;28;20070;-65
2022/04/10 17:27:51;;;;;;;2.60;0.80;;;;;;;;;;4949537;28;20071;-63
2022/04/10 17:30:18;;;;;;;1.45;0.52;;;;;;;;;;4950534;28;20085;-58
2022/04/10 17:32:46;;;;;;;2.72;0.80;;;;;;;;;;4966458;28;20159;-60
2022/04/10 17:35:13;;;;;;;1.20;0.70;;;;;;;;;;4948566;28;20094;-62
2022/04/10 17:37:40;;;;;;;1.83;0.80;;;;;;;;;;4943818;28;20054;-66
2022/04/10 17:40:07;;;;;;;1.92;0.70;;;;;;;;;;4950538;28;20075;-60
2022/04/10 17:42:34;;;;;;;1.17;0.60;;;;;;;;;;4935108;28;20063;-61
2022/04/10 17:45:01;;;;;;;1.45;0.70;;;;;;;;;;4969568;28;20062;-64
2022/04/10 17:47:29;;;;;;;3.63;0.90;;;;;;;;;;4956197;28;20058;-62
2022/04/10 17:49:57;;;;;;;3.40;0.98;;;;;;;;;;4969389;28;20061;-62
2022/04/10 17:52:24;;;;;;;1.90;0.70;;;;;;;;;;4967873;28;20059;-61
2022/04/10 17:54:50;;;;;;;5.15;0.90;;;;;;;;;;4954356;28;20137;-62
2022/04/10 17:57:17;;;;;;;3.72;0.90;;;;;;;;;;4952956;28;20070;-65
2022/04/10 17:59:44;;;;;;;2.08;0.70;;;;;;;;;;4954815;28;20069;-63
2022/04/10 18:02:11;;;;;;;1.90;0.80;;;;;;;;;;4949395;28;20062;-61
2022/04/10 18:04:37;;;;;;;1.85;0.77;;;;;;;;;;4945825;28;20066;-67
2022/04/10 18:07:06;;;;;;;3.45;0.70;;;;;;;;;;4963527;28;20055;-61
2022/04/10 18:09:33;;;;;;;2.50;0.68;;;;;;;;;;4945014;28;20059;-63
2022/04/10 18:12:01;;;;;;;1.88;0.60;;;;;;;;;;4942814;28;20063;-65
2022/04/10 18:14:28;;;;;;;0.95;0.50;;;;;;;;;;4947465;29;20086;-61
2022/04/10 18:16:55;;;;;;;1.95;0.73;;;;;;;;;;4934009;28;20083;-61
2022/04/10 18:19:22;;;;;;;1.88;0.60;;;;;;;;;;4947887;29;20063;-60
2022/04/10 18:21:49;;;;;;;1.40;0.70;;;;;;;;;;4933411;28;20062;-64
2022/04/10 18:24:20;;;;;;;0.85;0.60;;;;;;;;;;4960583;28;20102;-58
2022/04/10 18:26:48;;;;;;;3.70;0.73;;;;;;;;;;4942950;28;20063;-60
2022/04/10 18:29:17;;;;;;;1.17;0.70;;;;;;;;;;4936944;28;20051;-62
2022/04/10 18:31:44;;;;;;;1.38;0.60;;;;;;;;;;4964159;28;20087;-62
2022/04/10 18:34:11;;;;;;;1.08;0.60;;;;;;;;;;4934317;28;20092;-61
2022/04/10 18:36:37;;;;;;;3.72;0.98;;;;;;;;;;4948560;29;20145;-63
2022/04/10 18:39:06;;;;;;;0.93;0.60;;;;;;;;;;4937419;28;20146;-64
2022/04/10 18:41:35;;;;;;;1.98;0.60;;;;;;;;;;4966108;28;20055;-62
2022/04/10 18:44:02;;;;;;;1.50;0.60;;;;;;;;;;4948332;28;20075;-61
2022/04/10 18:46:30;;;;;;;2.42;0.80;;;;;;;;;;4953039;28;20065;-65
2022/04/10 18:51:42;;;;;;;0.63;0.45;;;;;;;;;;4934601;28;19929;-65
2022/04/10 18:54:08;;;;;;;1.38;0.70;;;;;;;;;;4948489;29;20047;-65
2022/04/10 18:56:38;;;;;;;2.45;0.90;;;;;;;;;;4949192;28;20095;-59
2022/04/10 18:59:04;;;;;;;1.40;0.60;;;;;;;;;;4963527;28;20158;-58
2022/04/10 19:01:31;;;;;;;3.13;0.82;;;;;;;;;;4953750;28;20159;-58
2022/04/10 19:03:58;;;;;;;2.75;0.90;;;;;;;;;;4943119;29;20051;-60